Rochester, NY

1:20 PM EDT on August 27, 2014 (GMT -0400)
Highland Park | Change Station
CLOSE
Current Station
Personal Weather Station
Location: Rochester, NY
Elevation: 607 ft
Nearby Weather Stations

Elev 607 ft 43.13 °N, 77.61 °W | Updated 2 seconds ago

Mostly Cloudy
Mostly Cloudy
75.5 °F
Feels Like 77 °F
N
9.2
Wind Variable Wind from NW
Gusts 9.2 mph

Today
High -- | Low -- °F
--% Chance of Precip.
Yesterday
High -- | Low -- °F
Precip. -- in
6:29 AM 7:53 PM
Waxing Crescent, 4% visible
Pressure 30.02 in
Visibility 10.0 miles
Clouds Scattered Clouds 2800 ft
Mostly Cloudy 3400 ft
Mostly Cloudy 4200 ft
Heat Index 77 °F
Dew Point 64 °F
Humidity 68%
Rainfall 0.00 in
Snow Depth Not available.
UV 5 out of 12
Pollen 9.90 out of 12
Air Quality Not available.
Flu Activity Not available.
SPECI KROC 271710Z 29008KT 10SM SCT028 BKN034 BKN042 24/16 A3002 RMK AO2

More Conditions Fewer Conditions

Pressure 30.02 in
Visibility 10.0 miles
Clouds Scattered Clouds 2800 ft
Mostly Cloudy 3400 ft
Mostly Cloudy 4200 ft
Heat Index 77 °F
Dew Point 64 °F
Humidity 68%
Rainfall 0.00 in
Snow Depth Not available.
UV 5 out of 12
Pollen 9.90 out of 12
Air Quality Not available.
Flu Activity Not available.
SPECI KROC 271710Z 29008KT 10SM SCT028 BKN034 BKN042 24/16 A3002 RMK AO2

More Conditions Fewer Conditions

10-Day Weather Forecast

Almanac

Astronomy

Aug. 27, 2014 Rise Set
Actual Time 6:29 AM EDT 7:53 PM EDT
Civil Twilight 5:59 AM EDT 8:23 PM EDT
Nautical Twilight 5:23 AM EDT 8:59 PM EDT
Astronomical Twilight 4:45 AM EDT 9:36 PM EDT
Moon 8:27 AM EDT 8:40 PM EDT
Length of Visible Light 14h 23m
Length of Day
13h 24m
Tomorrow will be 2m 46s shorter.
Waxing Crescent, 4% of the Moon is Illuminated
Today
Waxing Crescent
Sep 2
First Quarter
Sep 8
Full
Sep 15
Last Quarter
Sep 24
New

Today's Extremes

State Highs State Lows

Community

WunderPhotos

Upload Photos

1,747,731 photos uploaded!

Nearby

Air Quality

  Air Quality AQ Index Pollutant
Wednesday Good
OZONE
Wednesday Good
PM2.5
Thursday Good
OZONE
Thursday Good
PM2.5

Snow Depth

Station Depth Elevation
No new snow has been reported.

Earthquake Activity

City Distance Mag. Time & Date
No recent earthquake activity has been reported nearby.
Minimum magnitude displayed is 2.5.

Coastal Water Temperatures

Place Temperature
Buffalo, NY 73.0 °F
Alexandria Bay, NY 70.0 °F

Nearby Weather Stations